Time;durP1;ratioP1;P1;durP2;ratioP2;P2;SDS_P1;SDS_P2;PMS_P1;PMS_P2;Temp;Humidity;BMP_temperature;BMP_pressure;BME280_temperature;BME280_humidity;BME280_pressure;Samples;Min_cycle;Max_cycle;Signal;HPM_P1;HPM_P2
2023/01/30 00:00:25;;;;;;;23.40;12.50;;;3.30;99.90;;;;;;5036894;28;20227;-44
2023/01/30 00:02:50;;;;;;;18.70;10.17;;;3.40;99.90;;;;;;5018482;28;20258;-44
2023/01/30 00:05:16;;;;;;;18.87;9.93;;;3.40;99.90;;;;;;5036466;28;20270;-46
2023/01/30 00:07:41;;;;;;;20.60;12.57;;;3.40;99.90;;;;;;5036539;28;20180;-43
2023/01/30 00:10:08;;;;;;;25.73;13.27;;;3.40;99.90;;;;;;5018570;28;20496;-43
2023/01/30 00:12:33;;;;;;;22.93;12.80;;;3.40;99.90;;;;;;5036443;28;20232;-45
2023/01/30 00:14:59;;;;;;;29.03;14.63;;;3.40;99.90;;;;;;5038822;28;20648;-44
2023/01/30 00:17:24;;;;;;;26.87;14.73;;;3.50;99.90;;;;;;5038618;28;20181;-45
2023/01/30 00:19:50;;;;;;;22.63;11.83;;;3.40;99.90;;;;;;5037364;28;20176;-45
2023/01/30 00:22:16;;;;;;;23.73;13.53;;;3.50;99.90;;;;;;5018521;28;20307;-43
2023/01/30 00:24:41;;;;;;;27.87;14.07;;;3.50;99.90;;;;;;5036617;28;20193;-46
2023/01/30 00:27:08;;;;;;;27.23;16.40;;;3.50;99.90;;;;;;5036952;28;20204;-43
2023/01/30 00:29:33;;;;;;;26.07;14.63;;;3.60;99.90;;;;;;5036644;28;20216;-44
2023/01/30 00:31:59;;;;;;;27.23;14.43;;;3.50;99.90;;;;;;5037020;28;20208;-44
2023/01/30 00:34:24;;;;;;;23.37;12.20;;;3.60;99.90;;;;;;5036674;28;20196;-46
2023/01/30 00:36:50;;;;;;;25.43;13.20;;;3.60;99.90;;;;;;5018686;28;20496;-44
2023/01/30 00:39:15;;;;;;;25.13;14.67;;;3.60;99.90;;;;;;5036157;28;20634;-44
2023/01/30 00:47:10;;;;;;;15.33;7.93;;;3.70;99.90;;;;;;5036074;28;20203;-44
2023/01/30 00:49:36;;;;;;;24.73;14.03;;;3.70;99.90;;;;;;5036140;28;20223;-43
2023/01/30 00:52:03;;;;;;;22.63;11.63;;;3.70;99.90;;;;;;5036160;28;20248;-44
2023/01/30 00:54:29;;;;;;;23.50;13.53;;;3.70;99.90;;;;;;5035067;28;20184;-44
2023/01/30 00:56:55;;;;;;;26.03;13.50;;;3.80;99.90;;;;;;5035889;28;20231;-43
2023/01/30 00:59:20;;;;;;;18.47;10.23;;;3.80;99.90;;;;;;5018850;28;20201;-44
2023/01/30 01:01:46;;;;;;;28.00;14.40;;;3.80;99.90;;;;;;5035917;28;20239;-44
2023/01/30 01:04:12;;;;;;;20.83;11.50;;;3.80;99.90;;;;;;5017787;28;20212;-42
2023/01/30 01:06:39;;;;;;;23.57;12.43;;;3.80;99.90;;;;;;5035711;28;20184;-43
2023/01/30 01:09:05;;;;;;;23.60;13.30;;;3.80;99.90;;;;;;5035688;28;20177;-43
2023/01/30 01:11:31;;;;;;;23.10;13.47;;;3.80;99.90;;;;;;5035890;28;20536;-44
2023/01/30 01:13:58;;;;;;;26.23;15.17;;;3.90;99.90;;;;;;5035771;28;20193;-43
2023/01/30 01:16:25;;;;;;;18.00;9.47;;;3.90;99.90;;;;;;5036256;28;20259;-43
2023/01/30 01:18:51;;;;;;;25.77;15.07;;;3.90;99.90;;;;;;5017992;28;20207;-45
2023/01/30 01:21:17;;;;;;;22.27;13.07;;;3.90;99.90;;;;;;5035888;28;20236;-44
2023/01/30 01:23:47;;;;;;;17.27;10.13;;;3.90;99.90;;;;;;5035142;28;20632;-45
2023/01/30 01:26:13;;;;;;;21.63;12.93;;;3.90;99.90;;;;;;5035774;28;20223;-42
2023/01/30 01:28:39;;;;;;;20.80;11.40;;;4.00;99.90;;;;;;5035098;28;20177;-44
2023/01/30 01:31:12;;;;;;;28.90;15.10;;;4.00;99.90;;;;;;5035337;28;20219;-46
2023/01/30 01:33:38;;;;;;;29.87;13.67;;;4.00;99.90;;;;;;5035080;28;20192;-45
2023/01/30 01:36:04;;;;;;;23.17;11.43;;;4.00;99.90;;;;;;5035456;28;20549;-44
2023/01/30 01:38:30;;;;;;;19.47;10.30;;;4.00;99.90;;;;;;5035308;28;20208;-45
2023/01/30 01:41:01;;;;;;;21.20;11.27;;;4.10;99.90;;;;;;5034996;28;20206;-45
2023/01/30 01:43:30;;;;;;;24.30;13.20;;;4.10;99.90;;;;;;5035333;28;20228;-45
2023/01/30 01:46:07;;;;;;;22.17;12.90;;;4.00;99.90;;;;;;5035259;28;20342;-46
2023/01/30 01:48:32;;;;;;;25.23;15.47;;;4.10;99.90;;;;;;5035289;28;20538;-41
2023/01/30 01:51:07;;;;;;;26.17;12.53;;;4.10;99.90;;;;;;5035287;28;20181;-45
2023/01/30 01:53:38;;;;;;;21.43;11.57;;;4.10;99.90;;;;;;5034759;28;20196;-45
2023/01/30 01:56:05;;;;;;;18.00;9.50;;;4.10;99.90;;;;;;5034950;28;20231;-43
2023/01/30 01:58:41;;;;;;;22.77;10.50;;;4.10;99.90;;;;;;5017038;28;20204;-43
2023/01/30 02:01:06;;;;;;;14.73;8.10;;;4.10;99.90;;;;;;5034721;28;20164;-43
2023/01/30 02:03:36;;;;;;;20.97;11.57;;;4.10;99.90;;;;;;5034345;28;20200;-45
2023/01/30 02:06:03;;;;;;;18.77;11.03;;;4.10;99.90;;;;;;5016488;28;20239;-43
2023/01/30 02:08:31;;;;;;;19.50;11.77;;;4.20;99.90;;;;;;5034485;28;20231;-43
2023/01/30 02:11:23;;;;;;;27.90;15.53;;;4.20;99.90;;;;;;5034619;28;20168;-43
2023/01/30 02:13:49;;;;;;;20.53;12.00;;;4.20;99.90;;;;;;5034188;28;20209;-45
2023/01/30 02:16:15;;;;;;;14.27;8.77;;;4.20;99.90;;;;;;5034343;28;20172;-44
2023/01/30 02:18:42;;;;;;;13.63;8.23;;;4.20;99.90;;;;;;5034240;28;20196;-45
2023/01/30 02:21:32;;;;;;;17.90;9.20;;;4.20;99.90;;;;;;5034467;28;20173;-43
2023/01/30 02:24:25;;;;;;;24.00;12.23;;;4.20;99.90;;;;;;5033782;28;20212;-43
2023/01/30 02:27:29;;;;;;;23.73;13.90;;;4.20;99.90;;;;;;5034500;28;20169;-44
2023/01/30 02:30:16;;;;;;;18.30;10.30;;;4.20;99.90;;;;;;5021396;28;20239;-45
2023/01/30 02:33:11;;;;;;;22.63;13.10;;;4.20;99.90;;;;;;5033953;28;20204;-43
2023/01/30 02:36:12;;;;;;;21.43;12.60;;;4.20;99.90;;;;;;5033954;28;20188;-44
2023/01/30 02:38:47;;;;;;;23.63;12.63;;;4.20;99.90;;;;;;5016091;28;20177;-43
2023/01/30 02:41:22;;;;;;;35.80;14.10;;;4.20;99.90;;;;;;5034151;28;20253;-43
2023/01/30 02:44:04;;;;;;;26.77;12.60;;;4.20;99.90;;;;;;5033976;28;20287;-44
2023/01/30 02:46:55;;;;;;;18.30;9.20;;;4.20;99.90;;;;;;5016075;28;20189;-45
2023/01/30 02:49:43;;;;;;;28.57;14.47;;;4.30;99.90;;;;;;5016812;28;20212;-43
2023/01/30 02:52:11;;;;;;;19.00;11.60;;;4.20;99.90;;;;;;5033745;28;20242;-43
2023/01/30 02:54:37;;;;;;;22.17;11.70;;;4.20;99.90;;;;;;5033996;28;20236;-44
2023/01/30 02:57:03;;;;;;;22.93;13.37;;;4.20;99.90;;;;;;5033554;28;20180;-45
2023/01/30 02:59:40;;;;;;;14.20;9.70;;;4.20;99.90;;;;;;5015677;28;20216;-45
2023/01/30 03:02:28;;;;;;;24.37;13.43;;;4.20;99.90;;;;;;5033491;28;20204;-45
2023/01/30 03:05:04;;;;;;;19.43;10.60;;;4.20;99.90;;;;;;5033610;28;20189;-45
2023/01/30 03:07:30;;;;;;;19.40;10.43;;;4.20;99.90;;;;;;5033840;28;20171;-44
2023/01/30 03:10:08;;;;;;;11.07;6.53;;;4.30;99.90;;;;;;5033569;28;20248;-45
2023/01/30 03:12:59;;;;;;;23.13;12.17;;;4.20;99.90;;;;;;5033660;28;20212;-45
2023/01/30 03:15:48;;;;;;;15.33;7.87;;;4.20;99.90;;;;;;5033788;28;20257;-44
2023/01/30 03:18:16;;;;;;;19.73;9.30;;;4.30;99.90;;;;;;5037645;28;20179;-45
2023/01/30 03:20:43;;;;;;;17.63;10.97;;;4.30;99.90;;;;;;5037535;28;20223;-45
2023/01/30 03:23:08;;;;;;;18.73;10.50;;;4.30;99.90;;;;;;5019427;28;20224;-44
2023/01/30 03:25:36;;;;;;;23.73;13.37;;;4.30;99.90;;;;;;5037637;28;20203;-46
2023/01/30 03:28:04;;;;;;;21.30;13.23;;;4.30;99.90;;;;;;5037579;28;20180;-43
2023/01/30 03:30:30;;;;;;;27.23;15.73;;;4.40;99.90;;;;;;5039052;28;20181;-46
2023/01/30 03:32:56;;;;;;;15.30;7.87;;;4.40;99.90;;;;;;5037386;28;20193;-46
2023/01/30 03:35:22;;;;;;;22.77;12.40;;;4.30;99.90;;;;;;5037545;28;20188;-46
2023/01/30 03:37:47;;;;;;;22.10;11.43;;;4.30;99.90;;;;;;5037957;28;20173;-44
2023/01/30 03:40:15;;;;;;;21.03;11.97;;;4.40;99.90;;;;;;5037465;28;20547;-44
2023/01/30 03:42:40;;;;;;;14.23;8.83;;;4.40;99.90;;;;;;5038143;28;20604;-44
2023/01/30 03:45:07;;;;;;;18.17;9.67;;;4.40;99.90;;;;;;5037480;28;20243;-44
2023/01/30 03:47:33;;;;;;;18.23;9.83;;;4.40;99.90;;;;;;5038560;28;20270;-45
2023/01/30 03:49:58;;;;;;;24.90;13.03;;;4.50;99.90;;;;;;5038026;28;20169;-44
2023/01/30 03:52:24;;;;;;;14.33;8.40;;;4.50;99.90;;;;;;5019914;28;20657;-45
2023/01/30 03:54:50;;;;;;;22.87;12.23;;;4.50;99.90;;;;;;5036973;28;20188;-45
2023/01/30 03:57:15;;;;;;;19.63;11.30;;;4.50;99.90;;;;;;5036876;28;20181;-44
2023/01/30 03:59:41;;;;;;;21.03;11.30;;;4.50;99.90;;;;;;5037435;28;20563;-44
2023/01/30 04:02:07;;;;;;;17.17;9.70;;;4.50;99.90;;;;;;5036761;28;20201;-43
2023/01/30 04:04:33;;;;;;;22.97;11.87;;;4.60;99.90;;;;;;5036722;28;20232;-44
2023/01/30 04:06:59;;;;;;;25.27;12.67;;;4.50;99.90;;;;;;5036958;28;20181;-44
2023/01/30 04:09:25;;;;;;;17.90;10.57;;;4.60;99.90;;;;;;5036680;28;20721;-43
2023/01/30 04:11:50;;;;;;;23.17;12.13;;;4.60;99.90;;;;;;5036683;28;20204;-43
2023/01/30 04:14:16;;;;;;;26.50;15.60;;;4.60;99.90;;;;;;5036791;28;20181;-43
2023/01/30 04:16:42;;;;;;;14.70;9.20;;;4.60;99.90;;;;;;5019049;28;20585;-44
2023/01/30 04:19:07;;;;;;;20.10;10.63;;;4.60;99.90;;;;;;5036485;28;20593;-46
2023/01/30 04:21:33;;;;;;;26.23;13.80;;;4.70;99.90;;;;;;5018946;28;20188;-44
2023/01/30 04:23:58;;;;;;;15.53;9.67;;;4.70;99.90;;;;;;5036370;28;20217;-46
2023/01/30 04:26:24;;;;;;;17.07;10.47;;;4.70;99.90;;;;;;5038826;28;20192;-45
2023/01/30 04:28:50;;;;;;;17.70;10.40;;;4.70;99.90;;;;;;5039722;28;20180;-44
2023/01/30 04:31:16;;;;;;;28.23;14.83;;;4.70;99.90;;;;;;5041406;28;20260;-46
2023/01/30 04:33:41;;;;;;;24.50;14.27;;;4.70;99.90;;;;;;5039699;28;20200;-44
2023/01/30 04:36:08;;;;;;;18.93;11.33;;;4.70;99.90;;;;;;5039762;28;20181;-44
2023/01/30 04:38:34;;;;;;;23.50;13.63;;;4.70;99.90;;;;;;5040451;28;20231;-46
2023/01/30 04:41:00;;;;;;;18.37;11.10;;;4.70;99.90;;;;;;5038130;28;20186;-45
2023/01/30 04:43:27;;;;;;;13.47;8.30;;;4.70;99.90;;;;;;5036023;28;20239;-43
2023/01/30 04:45:53;;;;;;;21.73;11.17;;;4.70;99.90;;;;;;5036231;28;20702;-45
2023/01/30 04:48:21;;;;;;;17.23;10.03;;;4.70;99.90;;;;;;5036260;28;20173;-44
2023/01/30 04:50:48;;;;;;;18.30;10.20;;;4.70;99.90;;;;;;5036092;28;20181;-43
2023/01/30 04:53:14;;;;;;;21.93;9.47;;;4.80;99.90;;;;;;5036022;28;20216;-43
2023/01/30 04:55:40;;;;;;;16.23;10.70;;;4.80;99.90;;;;;;5035653;28;20649;-43
2023/01/30 04:58:06;;;;;;;17.03;8.77;;;4.80;99.90;;;;;;5035615;28;20188;-44
2023/01/30 05:00:32;;;;;;;15.53;9.60;;;4.80;99.90;;;;;;5035806;28;20181;-43
2023/01/30 05:02:57;;;;;;;21.57;12.87;;;4.80;99.90;;;;;;5017626;28;20205;-45
2023/01/30 05:05:24;;;;;;;16.83;10.30;;;4.80;99.90;;;;;;5035455;28;20218;-44
2023/01/30 05:07:50;;;;;;;15.90;9.10;;;4.80;99.90;;;;;;5017706;28;20178;-44
2023/01/30 05:10:16;;;;;;;22.37;13.20;;;4.80;99.90;;;;;;5035654;28;20184;-46
2023/01/30 05:12:42;;;;;;;21.00;11.30;;;4.80;99.90;;;;;;5035642;28;20197;-44
2023/01/30 05:15:09;;;;;;;17.53;10.07;;;4.90;99.90;;;;;;5035420;28;20691;-46
2023/01/30 05:17:35;;;;;;;18.63;12.13;;;4.90;99.90;;;;;;5035442;28;20177;-44
2023/01/30 05:20:00;;;;;;;16.37;9.50;;;4.80;99.90;;;;;;5035347;28;20192;-44
2023/01/30 05:22:26;;;;;;;19.87;10.40;;;4.90;99.90;;;;;;5035367;28;20248;-45
2023/01/30 05:24:52;;;;;;;15.37;9.80;;;4.90;99.90;;;;;;5035756;28;20650;-46
2023/01/30 05:27:17;;;;;;;15.60;9.93;;;4.90;99.90;;;;;;5035231;28;20296;-45
2023/01/30 05:29:43;;;;;;;12.30;7.83;;;4.90;99.90;;;;;;5035710;28;20185;-44
2023/01/30 05:32:14;;;;;;;16.43;8.27;;;4.90;99.90;;;;;;5035729;28;20224;-44
2023/01/30 05:34:39;;;;;;;12.27;6.67;;;5.00;99.90;;;;;;5035305;28;20184;-45
2023/01/30 05:37:05;;;;;;;11.63;6.93;;;5.00;99.90;;;;;;5034938;28;20181;-45
2023/01/30 05:39:31;;;;;;;18.57;10.13;;;5.00;99.90;;;;;;5034298;28;20319;-44
2023/01/30 05:41:56;;;;;;;13.27;8.53;;;5.00;99.90;;;;;;5034972;28;20177;-43
2023/01/30 05:44:22;;;;;;;16.83;8.97;;;5.00;99.90;;;;;;5035054;28;20200;-45
2023/01/30 05:46:48;;;;;;;13.63;8.87;;;5.00;99.90;;;;;;5034633;28;20184;-44
2023/01/30 05:49:13;;;;;;;10.00;6.10;;;5.00;99.90;;;;;;5034704;28;20667;-43
2023/01/30 05:51:39;;;;;;;14.37;8.40;;;5.00;99.90;;;;;;5034974;28;20231;-45
2023/01/30 05:54:05;;;;;;;11.23;7.20;;;5.10;99.90;;;;;;5034657;28;20227;-45
2023/01/30 05:56:32;;;;;;;12.93;6.83;;;5.00;99.90;;;;;;5035120;28;20244;-43
2023/01/30 05:58:59;;;;;;;16.90;8.80;;;5.10;99.90;;;;;;5034690;28;20170;-44
2023/01/30 06:01:25;;;;;;;8.73;6.20;;;5.10;99.90;;;;;;5034513;28;20538;-46
2023/01/30 06:03:52;;;;;;;13.77;8.50;;;5.20;99.90;;;;;;5034341;28;20201;-44
2023/01/30 06:06:18;;;;;;;12.83;8.90;;;5.20;99.90;;;;;;5034220;28;20200;-44
2023/01/30 06:08:44;;;;;;;13.67;7.03;;;5.20;99.90;;;;;;5034299;28;20182;-44
2023/01/30 06:11:13;;;;;;;9.30;6.57;;;5.20;99.90;;;;;;5034166;28;20178;-41
2023/01/30 06:13:40;;;;;;;10.33;6.17;;;5.30;99.90;;;;;;5034628;28;20491;-44
2023/01/30 06:16:07;;;;;;;13.57;8.07;;;5.30;99.90;;;;;;5034116;28;20179;-45
2023/01/30 06:18:33;;;;;;;11.17;7.30;;;5.30;99.90;;;;;;5034295;28;20181;-44
2023/01/30 06:20:58;;;;;;;10.93;7.10;;;5.30;99.90;;;;;;5034950;28;20204;-44
2023/01/30 06:23:24;;;;;;;10.93;7.63;;;5.40;99.90;;;;;;5033523;28;20235;-44
2023/01/30 06:25:51;;;;;;;12.67;7.97;;;5.40;99.90;;;;;;5033742;28;20252;-45
2023/01/30 06:28:17;;;;;;;10.10;7.73;;;5.40;99.90;;;;;;5033555;28;20581;-45
2023/01/30 06:30:43;;;;;;;12.83;8.57;;;5.40;99.90;;;;;;5034185;28;20191;-43
2023/01/30 06:33:09;;;;;;;10.73;6.83;;;5.40;99.90;;;;;;5033344;28;20198;-43
2023/01/30 06:35:38;;;;;;;7.77;5.60;;;5.40;99.90;;;;;;5033597;28;20182;-41
2023/01/30 06:38:05;;;;;;;10.20;7.40;;;5.40;99.90;;;;;;5015595;28;20189;-43
2023/01/30 06:40:30;;;;;;;11.27;7.60;;;5.50;99.90;;;;;;5033261;28;20187;-41
2023/01/30 06:42:56;;;;;;;8.97;5.53;;;5.40;99.90;;;;;;5033402;28;20651;-43
2023/01/30 06:45:22;;;;;;;10.97;6.97;;;5.50;99.90;;;;;;5033156;28;20297;-44
2023/01/30 06:47:49;;;;;;;10.27;6.87;;;5.50;99.90;;;;;;5033180;28;20261;-43
2023/01/30 06:50:16;;;;;;;13.23;7.60;;;5.50;99.90;;;;;;5033076;28;20174;-42
2023/01/30 06:52:43;;;;;;;7.87;4.57;;;5.50;99.90;;;;;;5032572;28;20282;-41
2023/01/30 06:55:10;;;;;;;13.60;8.30;;;5.50;99.90;;;;;;5033103;28;20199;-43
2023/01/30 06:57:37;;;;;;;11.77;6.63;;;5.50;99.90;;;;;;5033126;28;20193;-43
2023/01/30 07:00:05;;;;;;;12.90;8.90;;;5.50;99.90;;;;;;5033069;28;20183;-44
2023/01/30 07:02:33;;;;;;;12.60;7.00;;;5.50;99.90;;;;;;5033125;28;20292;-43
2023/01/30 07:04:59;;;;;;;12.20;8.37;;;5.50;99.90;;;;;;5033315;28;20234;-43
2023/01/30 07:07:25;;;;;;;9.07;6.10;;;5.50;99.90;;;;;;5032833;28;20189;-43
2023/01/30 07:09:50;;;;;;;13.00;6.90;;;5.50;99.90;;;;;;5033207;28;20181;-44
2023/01/30 07:12:16;;;;;;;8.50;6.00;;;5.60;99.90;;;;;;5032851;28;20195;-42
2023/01/30 07:14:41;;;;;;;9.30;6.80;;;5.60;99.90;;;;;;5032872;28;20192;-43
2023/01/30 07:17:07;;;;;;;11.60;6.40;;;5.60;99.90;;;;;;5015168;28;20231;-40
2023/01/30 07:19:32;;;;;;;8.43;6.30;;;5.60;99.90;;;;;;5015132;28;20239;-42
2023/01/30 07:21:58;;;;;;;11.27;7.50;;;5.60;99.90;;;;;;5032796;28;20261;-40
2023/01/30 07:24:23;;;;;;;10.07;6.63;;;5.60;99.90;;;;;;5032902;28;20274;-43
2023/01/30 07:26:49;;;;;;;10.20;6.40;;;5.70;99.90;;;;;;5015065;28;20572;-42
2023/01/30 07:29:15;;;;;;;12.43;8.17;;;5.70;99.90;;;;;;5032769;28;20261;-42
2023/01/30 07:31:40;;;;;;;12.53;8.07;;;5.60;99.90;;;;;;5033120;28;20284;-43
2023/01/30 07:34:06;;;;;;;11.60;7.80;;;5.60;99.90;;;;;;5032763;28;20253;-42
2023/01/30 07:36:33;;;;;;;10.57;7.10;;;5.70;99.90;;;;;;5014869;28;20184;-43
2023/01/30 07:39:00;;;;;;;9.80;6.17;;;5.70;99.90;;;;;;5032700;28;20571;-42
2023/01/30 07:41:26;;;;;;;11.90;8.00;;;5.70;99.90;;;;;;5032896;28;20183;-44
2023/01/30 07:43:52;;;;;;;11.03;7.77;;;5.80;99.90;;;;;;5032761;28;20201;-41
2023/01/30 07:46:18;;;;;;;8.83;5.90;;;5.80;99.90;;;;;;5032775;28;20210;-44
2023/01/30 07:48:44;;;;;;;12.33;6.73;;;5.80;99.90;;;;;;5032572;28;20637;-44
2023/01/30 07:51:10;;;;;;;9.53;7.30;;;5.80;99.90;;;;;;5032491;28;20177;-43
2023/01/30 07:53:36;;;;;;;17.37;8.87;;;5.80;99.90;;;;;;5032448;28;20195;-45
2023/01/30 07:56:09;;;;;;;11.60;8.50;;;5.80;99.90;;;;;;5014738;28;20191;-43
2023/01/30 07:58:35;;;;;;;8.43;5.47;;;5.90;99.90;;;;;;5014774;28;20190;-45
2023/01/30 08:01:00;;;;;;;13.23;8.63;;;5.90;99.90;;;;;;5032682;28;20182;-44
2023/01/30 08:03:26;;;;;;;13.63;8.63;;;5.90;99.90;;;;;;5034358;28;20206;-43
2023/01/30 08:05:52;;;;;;;15.43;9.43;;;5.90;99.90;;;;;;5036618;28;20269;-43
2023/01/30 08:08:18;;;;;;;11.83;7.30;;;6.00;99.90;;;;;;5036385;28;20552;-44
2023/01/30 08:10:47;;;;;;;15.53;8.87;;;6.00;99.90;;;;;;5036027;28;20274;-43
2023/01/30 08:13:12;;;;;;;13.30;8.97;;;6.00;99.90;;;;;;5035873;28;20227;-46
2023/01/30 08:15:38;;;;;;;15.10;10.27;;;6.00;99.90;;;;;;5036285;28;20221;-44
2023/01/30 08:18:03;;;;;;;15.53;9.57;;;6.10;99.90;;;;;;5036045;28;20243;-44
2023/01/30 08:20:29;;;;;;;17.83;9.97;;;6.10;99.90;;;;;;5036605;28;20715;-45
2023/01/30 08:22:57;;;;;;;20.63;10.07;;;6.10;99.90;;;;;;5036037;28;20219;-44
2023/01/30 08:25:22;;;;;;;15.37;9.33;;;6.10;99.90;;;;;;5036154;28;20315;-44
2023/01/30 08:27:48;;;;;;;13.80;9.10;;;6.00;99.90;;;;;;5035813;28;20176;-44
2023/01/30 08:30:14;;;;;;;16.50;8.33;;;6.00;99.90;;;;;;5035880;28;20211;-45
2023/01/30 08:32:40;;;;;;;13.93;6.30;;;6.00;99.90;;;;;;5037050;28;20197;-43
2023/01/30 08:35:06;;;;;;;14.07;7.77;;;6.00;99.90;;;;;;5018215;28;20189;-47
2023/01/30 08:37:32;;;;;;;21.40;7.13;;;6.00;99.90;;;;;;5036045;28;20195;-44
2023/01/30 08:39:57;;;;;;;15.83;6.97;;;6.00;99.90;;;;;;5035777;28;20654;-44
2023/01/30 08:42:23;;;;;;;14.00;6.57;;;6.10;99.90;;;;;;5035613;28;20572;-44
2023/01/30 08:44:48;;;;;;;17.63;6.10;;;6.10;99.90;;;;;;5017558;28;20215;-44
2023/01/30 08:47:14;;;;;;;12.67;5.53;;;6.10;99.90;;;;;;5035283;28;20215;-45
2023/01/30 08:49:40;;;;;;;13.53;5.57;;;6.20;99.90;;;;;;5035542;28;20185;-44
2023/01/30 08:52:05;;;;;;;18.87;6.03;;;6.20;99.90;;;;;;5035443;28;20309;-44
2023/01/30 08:54:31;;;;;;;24.07;4.33;;;6.20;99.90;;;;;;5035307;28;20639;-44
2023/01/30 08:56:56;;;;;;;10.13;4.77;;;6.20;99.90;;;;;;5035146;28;20238;-46
2023/01/30 08:59:22;;;;;;;11.03;4.73;;;6.30;99.90;;;;;;5035207;28;20332;-43
2023/01/30 09:01:47;;;;;;;14.20;5.17;;;6.30;99.90;;;;;;5034983;28;20200;-43
2023/01/30 09:04:13;;;;;;;10.00;3.50;;;6.30;99.90;;;;;;5035246;28;20194;-45
2023/01/30 09:06:39;;;;;;;8.27;3.40;;;6.30;99.90;;;;;;5017240;28;20187;-43
2023/01/30 09:09:04;;;;;;;11.20;4.53;;;6.40;99.90;;;;;;5034860;28;20180;-44
2023/01/30 09:11:30;;;;;;;13.53;4.53;;;6.50;99.90;;;;;;5034912;28;20184;-44
2023/01/30 09:13:55;;;;;;;19.00;5.00;;;6.50;99.90;;;;;;5034775;28;20279;-44
2023/01/30 09:16:21;;;;;;;14.37;4.80;;;6.50;99.90;;;;;;5016863;28;20656;-44
2023/01/30 09:18:47;;;;;;;7.07;2.87;;;6.60;99.90;;;;;;5035114;28;20191;-44
2023/01/30 09:21:13;;;;;;;13.13;4.63;;;6.60;99.90;;;;;;5035058;28;20192;-44
2023/01/30 09:23:39;;;;;;;12.80;4.60;;;6.70;99.90;;;;;;5034543;28;20239;-46
2023/01/30 09:26:05;;;;;;;10.57;4.50;;;6.70;99.90;;;;;;5035177;28;20227;-46
2023/01/30 09:28:32;;;;;;;11.20;4.27;;;6.80;99.90;;;;;;5034614;28;20176;-45
2023/01/30 09:30:58;;;;;;;18.27;5.00;;;6.80;99.90;;;;;;5035249;28;20180;-45
2023/01/30 09:33:24;;;;;;;15.27;4.67;;;6.80;99.90;;;;;;5034397;28;20203;-43
2023/01/30 09:35:50;;;;;;;13.30;3.57;;;6.90;99.90;;;;;;5034484;28;20538;-42
2023/01/30 09:38:16;;;;;;;12.03;3.90;;;6.90;99.90;;;;;;5016586;28;20225;-43
2023/01/30 09:40:55;;;;;;;14.50;4.27;;;7.00;99.90;;;;;;5034336;28;20210;-45
2023/01/30 09:44:04;;;;;;;17.00;4.57;;;7.00;99.90;;;;;;5034271;28;20254;-43
2023/01/30 09:47:04;;;;;;;14.47;3.70;;;7.10;99.90;;;;;;5009417;28;20291;-43
2023/01/30 09:49:56;;;;;;;9.63;3.50;;;7.10;99.90;;;;;;5016424;28;20274;-45
2023/01/30 09:52:27;;;;;;;9.93;4.47;;;7.10;99.90;;;;;;5034225;28;20195;-45
2023/01/30 09:55:14;;;;;;;9.20;3.33;;;7.10;99.90;;;;;;5034296;28;20193;-44
2023/01/30 09:57:40;;;;;;;14.60;4.57;;;7.10;99.90;;;;;;5016310;28;20185;-45
2023/01/30 10:00:25;;;;;;;12.93;4.33;;;7.20;99.90;;;;;;5034406;28;20203;-44
2023/01/30 10:03:07;;;;;;;20.80;5.83;;;7.20;99.90;;;;;;5034070;28;20228;-45
2023/01/30 10:05:59;;;;;;;15.87;4.97;;;7.30;99.90;;;;;;5034837;28;20211;-44
2023/01/30 10:08:55;;;;;;;13.37;4.67;;;7.30;99.90;;;;;;5033841;28;20173;-45
2023/01/30 10:11:42;;;;;;;17.70;4.23;;;7.30;99.90;;;;;;5034164;28;20267;-45
2023/01/30 10:14:27;;;;;;;14.60;4.00;;;7.30;99.90;;;;;;5033736;28;20242;-46
2023/01/30 10:17:07;;;;;;;18.87;3.57;;;7.30;99.90;;;;;;5033758;28;20166;-46
2023/01/30 10:20:02;;;;;;;14.30;3.10;;;7.40;99.90;;;;;;5033647;28;20169;-45
2023/01/30 10:22:53;;;;;;;11.37;3.10;;;7.40;99.90;;;;;;5033709;28;20243;-45
2023/01/30 10:25:28;;;;;;;18.00;3.83;;;7.40;99.90;;;;;;5033798;28;20192;-46
2023/01/30 10:28:05;;;;;;;18.33;3.53;;;7.40;99.90;;;;;;5033581;28;20287;-45
2023/01/30 10:30:32;;;;;;;16.00;3.27;;;7.50;99.90;;;;;;5033900;28;20192;-47
2023/01/30 10:33:07;;;;;;;20.77;3.60;;;7.60;99.90;;;;;;5033329;28;20292;-46
2023/01/30 10:35:40;;;;;;;15.87;3.40;;;7.60;99.90;;;;;;5033662;28;20326;-45
2023/01/30 10:38:11;;;;;;;15.63;3.13;;;7.60;99.90;;;;;;5033493;28;20193;-46
2023/01/30 10:40:55;;;;;;;12.47;2.87;;;7.60;99.90;;;;;;5033535;28;20262;-47
2023/01/30 10:43:56;;;;;;;12.13;2.83;;;7.60;99.90;;;;;;5033738;28;20303;-50
2023/01/30 10:46:33;;;;;;;19.87;3.50;;;7.60;99.90;;;;;;4972533;28;20221;-51
2023/01/30 10:49:26;;;;;;;13.23;2.70;;;7.60;99.90;;;;;;5025296;28;20215;-51
2023/01/30 10:51:58;;;;;;;16.00;3.43;;;7.60;99.90;;;;;;5033357;28;20181;-50
2023/01/30 10:54:53;;;;;;;16.83;2.67;;;7.60;99.90;;;;;;5033320;28;20237;-49
2023/01/30 10:57:38;;;;;;;3.93;1.23;;;7.60;99.90;;;;;;5033835;28;20224;-50
2023/01/30 11:00:41;;;;;;;14.47;3.20;;;7.60;99.90;;;;;;5033680;28;20195;-50
2023/01/30 11:03:28;;;;;;;16.20;3.60;;;7.60;99.90;;;;;;5033688;28;20205;-49
2023/01/30 11:06:06;;;;;;;15.43;2.83;;;7.60;99.90;;;;;;5034009;28;20205;-50
2023/01/30 11:08:34;;;;;;;17.83;3.03;;;7.50;99.90;;;;;;5033644;28;20528;-47
2023/01/30 11:11:00;;;;;;;16.57;2.63;;;7.50;99.90;;;;;;5033219;28;20265;-49
2023/01/30 11:13:31;;;;;;;12.17;2.73;;;7.50;99.90;;;;;;5015004;28;20677;-48
2023/01/30 11:16:06;;;;;;;6.90;2.20;;;7.50;99.90;;;;;;5032736;28;20172;-47
2023/01/30 11:18:32;;;;;;;7.50;1.90;;;7.50;99.90;;;;;;5015184;28;20174;-48
2023/01/30 11:21:03;;;;;;;12.70;2.63;;;7.50;99.90;;;;;;5015239;28;20189;-48
2023/01/30 11:23:40;;;;;;;13.77;2.60;;;7.50;99.90;;;;;;5032758;28;20308;-49
2023/01/30 11:26:06;;;;;;;9.77;2.07;;;7.50;99.90;;;;;;5015810;28;20219;-48
2023/01/30 11:28:38;;;;;;;11.80;2.43;;;7.50;99.90;;;;;;5032695;28;20618;-47
2023/01/30 11:31:03;;;;;;;11.07;2.40;;;7.50;99.90;;;;;;5033092;28;20173;-48
2023/01/30 11:33:35;;;;;;;16.77;3.10;;;7.50;99.90;;;;;;5014900;28;20198;-49
2023/01/30 11:36:03;;;;;;;12.97;2.53;;;7.50;99.90;;;;;;5033014;28;20205;-49
2023/01/30 11:38:34;;;;;;;12.53;1.93;;;7.50;99.90;;;;;;5034804;28;20177;-49
2023/01/30 11:41:18;;;;;;;16.23;3.63;;;7.40;99.90;;;;;;5036833;28;20185;-50
2023/01/30 11:43:44;;;;;;;10.47;2.33;;;7.40;99.90;;;;;;5036459;28;20209;-49
2023/01/30 11:46:14;;;;;;;7.87;2.20;;;7.40;99.90;;;;;;5036363;28;20207;-51
2023/01/30 11:48:58;;;;;;;19.00;2.57;;;7.40;99.90;;;;;;5036749;28;20276;-49
2023/01/30 11:51:24;;;;;;;7.83;2.63;;;7.40;99.90;;;;;;5036683;28;20162;-49
2023/01/30 11:53:59;;;;;;;12.17;2.57;;;7.40;99.90;;;;;;5018460;28;20205;-49
2023/01/30 11:56:33;;;;;;;14.03;3.10;;;7.40;99.90;;;;;;5018518;28;20545;-49
2023/01/30 11:59:03;;;;;;;12.90;2.33;;;7.30;99.90;;;;;;5036464;28;20175;-49
2023/01/30 12:01:33;;;;;;;17.70;3.07;;;7.30;99.90;;;;;;5036393;28;20174;-49
2023/01/30 12:04:00;;;;;;;13.93;2.80;;;7.30;99.90;;;;;;5036356;28;20239;-48
2023/01/30 12:06:29;;;;;;;17.80;3.50;;;7.30;99.90;;;;;;5036274;28;20222;-49
2023/01/30 12:08:56;;;;;;;11.77;2.80;;;7.30;99.90;;;;;;5018279;28;20181;-49
2023/01/30 12:11:26;;;;;;;14.13;3.03;;;7.30;99.90;;;;;;5036587;28;20268;-51
2023/01/30 12:13:56;;;;;;;18.67;2.80;;;7.30;99.90;;;;;;5035922;28;20734;-49
2023/01/30 12:16:50;;;;;;;14.20;2.90;;;7.30;99.90;;;;;;5036400;28;20184;-49
2023/01/30 12:19:39;;;;;;;11.27;2.43;;;7.30;99.90;;;;;;5035864;28;20663;-49
2023/01/30 12:22:23;;;;;;;15.93;2.73;;;7.30;99.90;;;;;;5036739;28;20604;-50
2023/01/30 12:25:00;;;;;;;11.97;2.90;;;7.30;99.90;;;;;;5035629;28;20272;-51
2023/01/30 12:27:47;;;;;;;14.57;2.63;;;7.30;99.90;;;;;;5035789;28;20641;-50
2023/01/30 12:30:28;;;;;;;20.27;3.00;;;7.20;99.90;;;;;;5035718;28;20193;-50
2023/01/30 12:33:00;;;;;;;12.67;3.37;;;7.20;99.90;;;;;;5035741;28;20564;-49
2023/01/30 12:35:40;;;;;;;9.63;2.03;;;7.20;99.90;;;;;;5035598;28;20655;-49
2023/01/30 12:38:14;;;;;;;15.93;3.20;;;7.20;99.90;;;;;;5035843;28;20272;-52
2023/01/30 12:41:12;;;;;;;16.83;2.67;;;7.20;99.90;;;;;;5035455;28;20523;-50
2023/01/30 12:44:14;;;;;;;9.73;2.97;;;7.30;99.90;;;;;;5035992;28;20680;-52
2023/01/30 12:47:11;;;;;;;12.17;2.40;;;7.30;99.90;;;;;;5017676;28;20255;-50
2023/01/30 12:50:00;;;;;;;11.07;2.37;;;7.30;99.90;;;;;;5034230;28;20640;-49
2023/01/30 12:52:47;;;;;;;12.67;2.30;;;7.40;99.90;;;;;;5035575;28;20653;-50
2023/01/30 12:55:21;;;;;;;13.03;2.53;;;7.40;99.90;;;;;;5001362;28;20587;-50
2023/01/30 12:58:10;;;;;;;18.20;2.77;;;7.40;99.90;;;;;;5035554;28;20177;-51
2023/01/30 13:00:53;;;;;;;19.83;2.80;;;7.40;99.90;;;;;;5035460;28;20180;-50
2023/01/30 13:03:52;;;;;;;17.43;2.73;;;7.50;99.90;;;;;;5035089;28;20547;-49
2023/01/30 13:06:30;;;;;;;10.40;3.20;;;7.50;99.90;;;;;;5035215;28;20264;-51
2023/01/30 13:09:26;;;;;;;18.83;3.00;;;7.50;99.90;;;;;;5017172;28;20176;-49